Time;durP1;ratioP1;P1;durP2;ratioP2;P2;SDS_P1;SDS_P2;PMS_P1;PMS_P2;Temp;Humidity;BMP_temperature;BMP_pressure;BME280_temperature;BME280_humidity;BME280_pressure;Samples;Min_cycle;Max_cycle;Signal;HPM_P1;HPM_P2
2022/12/14 00:01:18;;;;;;;16.40;9.93;;;-3.60;99.90;;;;;;5051688;28;20444;-49
2022/12/14 00:03:45;;;;;;;12.50;9.53;;;-3.60;99.90;;;;;;5050232;28;20527;-47
2022/12/14 00:06:16;;;;;;;13.00;11.13;;;-3.60;99.90;;;;;;5050941;28;20493;-49
2022/12/14 00:08:43;;;;;;;16.23;11.13;;;-3.70;99.90;;;;;;5049419;28;20447;-49
2022/12/14 00:11:11;;;;;;;12.80;10.50;;;-3.70;99.90;;;;;;5050344;28;21037;-47
2022/12/14 00:13:38;;;;;;;15.80;10.70;;;-3.80;99.90;;;;;;5050398;28;20950;-50
2022/12/14 00:16:07;;;;;;;16.57;11.30;;;-3.70;99.90;;;;;;5050640;28;20494;-47
2022/12/14 00:18:34;;;;;;;12.20;10.37;;;-3.70;99.90;;;;;;5050340;28;20535;-51
2022/12/14 00:21:06;;;;;;;11.00;9.17;;;-3.90;99.90;;;;;;5050759;28;21039;-47
2022/12/14 00:23:35;;;;;;;17.20;10.00;;;-3.70;99.90;;;;;;5051438;28;20475;-49
2022/12/14 00:26:08;;;;;;;17.90;9.37;;;-3.80;99.90;;;;;;5050740;28;20540;-47
2022/12/14 00:28:35;;;;;;;11.17;9.30;;;-3.80;99.90;;;;;;5050743;28;20447;-49
2022/12/14 00:31:02;;;;;;;9.83;8.83;;;-3.70;99.90;;;;;;5051260;28;20529;-47
2022/12/14 00:33:29;;;;;;;10.90;9.80;;;-3.60;99.90;;;;;;5050439;28;20902;-50
2022/12/14 00:35:56;;;;;;;12.10;7.97;;;-3.60;99.90;;;;;;5049868;28;20567;-47
2022/12/14 00:38:23;;;;;;;9.53;8.63;;;-3.60;99.90;;;;;;5050441;28;20448;-48
2022/12/14 00:40:52;;;;;;;10.00;9.00;;;-3.60;99.90;;;;;;5050177;28;20454;-49
2022/12/14 00:43:18;;;;;;;12.93;9.27;;;-3.60;99.90;;;;;;5050111;28;20192;-48
2022/12/14 00:45:45;;;;;;;11.23;9.17;;;-3.60;99.90;;;;;;5050039;28;20464;-48
2022/12/14 00:48:13;;;;;;;11.00;9.90;;;-3.50;99.90;;;;;;5050151;28;20450;-47
2022/12/14 00:50:40;;;;;;;13.50;9.60;;;-3.50;99.90;;;;;;5050121;28;20447;-49
2022/12/14 00:53:08;;;;;;;14.10;11.00;;;-3.50;99.90;;;;;;5048507;28;20554;-48
2022/12/14 00:55:38;;;;;;;11.07;9.90;;;-3.60;99.90;;;;;;5041647;28;20511;-48
2022/12/14 00:58:07;;;;;;;13.20;9.83;;;-3.60;99.90;;;;;;5050283;28;20861;-48
2022/12/14 01:00:34;;;;;;;12.73;9.10;;;-3.50;99.90;;;;;;5049492;28;20539;-48
2022/12/14 01:03:01;;;;;;;11.50;8.87;;;-3.60;99.90;;;;;;5049422;28;20939;-49
2022/12/14 01:05:28;;;;;;;12.10;10.30;;;-3.70;99.90;;;;;;5049943;28;20459;-47
2022/12/14 01:07:55;;;;;;;12.07;9.17;;;-3.70;99.90;;;;;;5044261;28;20549;-48
2022/12/14 01:10:22;;;;;;;13.13;8.70;;;-3.60;99.90;;;;;;5049728;28;20542;-47
2022/12/14 01:12:49;;;;;;;9.40;8.40;;;-3.60;99.90;;;;;;5049637;28;20437;-50
2022/12/14 01:15:18;;;;;;;14.37;10.10;;;-3.60;99.90;;;;;;5049523;28;20478;-47
2022/12/14 01:17:44;;;;;;;13.50;10.20;;;-3.60;99.90;;;;;;5049717;28;20547;-47
2022/12/14 01:20:12;;;;;;;13.63;10.13;;;-3.50;99.90;;;;;;5050068;28;20451;-47
2022/12/14 01:22:39;;;;;;;10.60;9.60;;;-3.50;99.90;;;;;;5049310;28;20878;-47
2022/12/14 01:25:06;;;;;;;11.70;9.30;;;-3.40;99.90;;;;;;5035589;28;20471;-47
2022/12/14 01:27:33;;;;;;;10.67;9.43;;;-3.30;99.90;;;;;;5046516;28;20952;-47
2022/12/14 01:30:00;;;;;;;13.07;10.80;;;-3.30;99.90;;;;;;5049860;28;20470;-47
2022/12/14 01:32:29;;;;;;;10.77;9.70;;;-3.30;99.90;;;;;;5055857;28;20455;-47
2022/12/14 01:34:55;;;;;;;10.67;9.60;;;-3.40;99.90;;;;;;5049652;28;20476;-47
2022/12/14 01:37:22;;;;;;;12.50;10.57;;;-3.40;99.90;;;;;;5034643;28;21064;-49
2022/12/14 01:39:49;;;;;;;11.53;9.90;;;-3.40;99.90;;;;;;5049326;28;20441;-48
2022/12/14 01:42:16;;;;;;;11.60;8.40;;;-3.40;99.90;;;;;;5049110;28;20455;-48
2022/12/14 01:44:57;;;;;;;11.43;9.47;;;-3.40;99.90;;;;;;5048589;28;20468;-50
2022/12/14 01:47:38;;;;;;;10.83;9.17;;;-3.30;99.90;;;;;;5049320;28;20531;-49
2022/12/14 01:50:11;;;;;;;25.40;16.90;;;-3.30;99.90;;;;;;5049898;28;20536;-47
2022/12/14 01:52:41;;;;;;;26.57;17.87;;;-3.30;99.90;;;;;;5049171;28;20451;-50
2022/12/14 01:55:11;;;;;;;26.87;14.70;;;-3.30;99.90;;;;;;5048204;28;20467;-47
2022/12/14 01:57:41;;;;;;;8.87;8.00;;;-3.30;99.90;;;;;;5048610;28;20531;-49
2022/12/14 02:00:13;;;;;;;10.20;8.10;;;-3.50;99.90;;;;;;5049732;28;20438;-48
2022/12/14 02:02:46;;;;;;;10.17;7.50;;;-3.50;99.90;;;;;;5048949;28;20454;-49
2022/12/14 02:05:14;;;;;;;10.23;7.00;;;-3.40;99.90;;;;;;5048690;28;20907;-49
2022/12/14 02:07:42;;;;;;;8.40;5.87;;;-3.30;99.90;;;;;;5049187;28;20448;-50
2022/12/14 02:10:10;;;;;;;11.83;7.50;;;-3.30;99.90;;;;;;5049071;28;20803;-47
2022/12/14 02:12:42;;;;;;;14.17;8.63;;;-3.20;99.90;;;;;;5037575;28;20460;-49
2022/12/14 02:15:10;;;;;;;13.00;9.17;;;-3.30;99.90;;;;;;5048748;28;20472;-51
2022/12/14 02:17:38;;;;;;;13.03;8.90;;;-3.60;99.90;;;;;;5049188;28;20829;-48
2022/12/14 02:20:07;;;;;;;15.53;9.27;;;-3.60;99.90;;;;;;5049705;28;20547;-47
2022/12/14 02:23:15;;;;;;;11.47;9.60;;;-3.50;99.90;;;;;;5049124;28;20451;-50
2022/12/14 02:26:05;;;;;;;10.70;9.10;;;-3.50;99.90;;;;;;5047676;28;21039;-49
2022/12/14 02:29:05;;;;;;;13.30;9.53;;;-3.50;99.90;;;;;;5042771;28;20840;-49
2022/12/14 02:31:38;;;;;;;13.27;8.33;;;-3.60;99.90;;;;;;5048882;28;20451;-47
2022/12/14 02:34:11;;;;;;;9.40;8.50;;;-3.70;99.90;;;;;;5048672;28;20533;-48
2022/12/14 02:36:45;;;;;;;8.07;7.27;;;-3.70;99.90;;;;;;5053807;28;20571;-46
2022/12/14 02:39:20;;;;;;;8.60;7.53;;;-3.60;99.90;;;;;;5052328;28;20966;-47
2022/12/14 02:41:57;;;;;;;11.30;6.93;;;-3.40;99.90;;;;;;5053552;28;20447;-47
2022/12/14 02:44:33;;;;;;;11.50;8.37;;;-3.20;99.90;;;;;;5053052;28;20449;-48
2022/12/14 02:47:10;;;;;;;10.07;8.23;;;-3.30;99.90;;;;;;5038777;28;20441;-47
2022/12/14 02:49:52;;;;;;;13.30;8.30;;;-3.30;99.90;;;;;;5053599;28;20876;-47
2022/12/14 02:52:24;;;;;;;9.20;8.37;;;-3.30;99.90;;;;;;5053361;28;20533;-47
2022/12/14 02:54:57;;;;;;;9.40;7.47;;;-3.30;99.90;;;;;;5051844;28;20645;-47
2022/12/14 02:57:28;;;;;;;8.53;6.50;;;-3.30;99.90;;;;;;5052704;28;20479;-46
2022/12/14 03:00:00;;;;;;;10.27;8.10;;;-3.20;99.90;;;;;;5052895;28;20551;-48
2022/12/14 03:02:28;;;;;;;8.57;7.67;;;-3.30;99.90;;;;;;5053528;28;20446;-48
2022/12/14 03:04:55;;;;;;;15.20;9.77;;;-3.30;99.90;;;;;;5051792;28;20559;-47
2022/12/14 03:07:38;;;;;;;10.20;8.00;;;-3.40;99.90;;;;;;5053196;28;20943;-47
2022/12/14 03:10:15;;;;;;;13.20;9.10;;;-3.50;99.90;;;;;;5053188;28;20449;-50
2022/12/14 03:12:45;;;;;;;10.87;8.40;;;-3.40;99.90;;;;;;5052942;28;20529;-47
2022/12/14 03:15:16;;;;;;;10.63;7.63;;;-3.30;99.90;;;;;;5052914;28;20531;-48
2022/12/14 03:17:45;;;;;;;7.93;7.13;;;-3.20;99.90;;;;;;5053044;28;20559;-50
2022/12/14 03:20:18;;;;;;;12.03;6.87;;;-3.30;99.90;;;;;;5052522;28;20448;-49
2022/12/14 03:22:50;;;;;;;8.83;5.97;;;-3.20;99.90;;;;;;5052667;28;20452;-47
2022/12/14 03:25:21;;;;;;;9.80;6.00;;;-3.10;99.90;;;;;;5052531;28;20472;-47
2022/12/14 03:27:53;;;;;;;8.90;6.37;;;-3.10;99.90;;;;;;5047436;28;20446;-47
2022/12/14 03:30:21;;;;;;;8.20;6.57;;;-3.10;99.90;;;;;;5052582;28;20450;-49
2022/12/14 03:32:51;;;;;;;11.20;7.77;;;-3.10;99.90;;;;;;5052866;28;20451;-48
2022/12/14 03:35:23;;;;;;;11.87;8.57;;;-3.00;99.90;;;;;;5051749;28;21071;-49
2022/12/14 03:37:56;;;;;;;9.83;8.07;;;-3.00;99.90;;;;;;5052869;28;20559;-47
2022/12/14 03:40:30;;;;;;;12.17;8.20;;;-3.00;99.90;;;;;;5052424;28;20536;-48
2022/12/14 03:43:04;;;;;;;10.97;9.03;;;-3.10;99.90;;;;;;5039785;28;20521;-47
2022/12/14 03:45:39;;;;;;;10.47;7.80;;;-3.00;99.90;;;;;;5051352;28;20567;-51
2022/12/14 03:48:15;;;;;;;11.10;7.13;;;-3.00;99.90;;;;;;5051866;28;20451;-47
2022/12/14 03:50:45;;;;;;;11.23;8.40;;;-3.00;99.90;;;;;;5052392;28;20538;-47
2022/12/14 03:53:15;;;;;;;10.37;8.03;;;-3.00;99.90;;;;;;5051447;28;20449;-50
2022/12/14 03:55:50;;;;;;;10.63;8.43;;;-3.00;99.90;;;;;;5050702;28;20465;-49
2022/12/14 03:58:35;;;;;;;9.20;7.23;;;-3.00;99.90;;;;;;5052453;28;20537;-48
2022/12/14 04:01:08;;;;;;;8.00;7.10;;;-3.00;99.90;;;;;;5051742;28;20529;-47
2022/12/14 04:03:46;;;;;;;11.47;8.60;;;-3.00;99.90;;;;;;5051872;28;20483;-47
2022/12/14 04:06:20;;;;;;;9.97;7.93;;;-3.00;99.90;;;;;;5051524;28;20534;-47
2022/12/14 04:08:53;;;;;;;9.33;7.33;;;-3.00;99.90;;;;;;5052027;28;20477;-47
2022/12/14 04:19:50;;;;;;;9.07;8.10;;;-2.90;99.90;;;;;;5051766;28;20455;-48
2022/12/14 04:22:22;;;;;;;9.63;8.27;;;-3.10;99.90;;;;;;5051878;28;20534;-50
2022/12/14 04:27:42;;;;;;;9.07;8.17;;;-3.10;99.90;;;;;;5051544;28;20989;-47
2022/12/14 04:30:10;;;;;;;9.33;8.23;;;-3.10;99.90;;;;;;5051163;28;20448;-48
2022/12/14 04:32:42;;;;;;;10.90;8.67;;;-3.10;99.90;;;;;;5051959;28;20942;-47
2022/12/14 04:35:13;;;;;;;9.23;6.50;;;-3.00;99.90;;;;;;5050264;28;21066;-47
2022/12/14 04:37:42;;;;;;;6.50;5.87;;;-2.90;99.90;;;;;;5051751;28;20570;-47
2022/12/14 04:40:12;;;;;;;8.33;7.17;;;-2.90;99.90;;;;;;5051729;28;20555;-47
2022/12/14 04:42:46;;;;;;;8.97;7.20;;;-2.80;99.90;;;;;;5051210;28;20531;-47
2022/12/14 04:45:18;;;;;;;10.60;7.13;;;-2.80;99.90;;;;;;5050199;28;20470;-47
2022/12/14 04:47:54;;;;;;;12.30;8.67;;;-2.90;99.90;;;;;;5051241;28;20524;-50
2022/12/14 04:50:26;;;;;;;10.10;7.50;;;-2.90;99.90;;;;;;5051439;28;20822;-50
2022/12/14 04:52:58;;;;;;;7.13;6.43;;;-3.00;99.90;;;;;;5051498;28;20480;-47
2022/12/14 04:55:31;;;;;;;6.13;5.30;;;-3.00;99.90;;;;;;5050873;28;20620;-46
2022/12/14 04:58:03;;;;;;;6.30;5.00;;;-2.90;99.90;;;;;;5050276;28;20560;-46
2022/12/14 05:00:32;;;;;;;7.20;5.80;;;-2.80;99.90;;;;;;5050691;28;20538;-47
2022/12/14 05:03:27;;;;;;;10.33;8.30;;;-2.70;99.90;;;;;;5050532;28;20534;-46
2022/12/14 05:06:05;;;;;;;10.77;9.30;;;-2.70;99.90;;;;;;5050677;28;20553;-49
2022/12/14 05:08:59;;;;;;;13.80;9.40;;;-2.80;99.90;;;;;;5051292;28;20484;-47
2022/12/14 05:11:31;;;;;;;12.70;9.93;;;-2.90;99.90;;;;;;5008496;28;20549;-46
2022/12/14 05:14:00;;;;;;;9.37;8.40;;;-2.80;99.90;;;;;;5050357;28;20448;-48
2022/12/14 05:16:27;;;;;;;8.83;7.90;;;-2.70;99.90;;;;;;5050688;28;20572;-47
2022/12/14 05:18:55;;;;;;;9.23;8.10;;;-2.70;99.90;;;;;;5050687;28;20505;-46
2022/12/14 05:24:07;;;;;;;11.20;9.23;;;-3.10;99.90;;;;;;5050111;28;20198;-49
2022/12/14 05:26:34;;;;;;;9.03;7.83;;;-3.00;99.90;;;;;;5050013;28;20469;-46
2022/12/14 05:29:01;;;;;;;11.17;7.83;;;-2.90;99.90;;;;;;5050687;28;20892;-48
2022/12/14 05:31:28;;;;;;;8.43;6.87;;;-2.90;99.90;;;;;;5050850;28;20446;-47
2022/12/14 05:33:56;;;;;;;10.50;6.90;;;-2.90;99.90;;;;;;5050542;28;20441;-47
2022/12/14 05:36:23;;;;;;;9.47;6.10;;;-2.80;99.90;;;;;;5049892;28;20832;-48
2022/12/14 05:38:50;;;;;;;9.00;7.53;;;-2.80;99.90;;;;;;5050973;28;20928;-46
2022/12/14 05:41:16;;;;;;;8.17;6.10;;;-2.80;99.90;;;;;;5049729;28;20440;-47
2022/12/14 05:43:43;;;;;;;7.27;6.60;;;-2.80;99.90;;;;;;5045974;28;20448;-46
2022/12/14 05:46:11;;;;;;;8.57;7.70;;;-2.80;99.90;;;;;;5046269;28;20799;-46
2022/12/14 05:48:38;;;;;;;15.30;9.17;;;-2.70;99.90;;;;;;5047715;28;20446;-46
2022/12/14 05:51:08;;;;;;;13.17;9.70;;;-2.70;99.90;;;;;;5050113;28;20527;-46
2022/12/14 05:53:36;;;;;;;13.30;10.27;;;-2.70;99.90;;;;;;5050417;28;20528;-47
2022/12/14 05:56:04;;;;;;;12.20;10.37;;;-2.80;99.90;;;;;;5051010;28;20540;-47
2022/12/14 05:58:31;;;;;;;18.33;11.17;;;-2.80;99.90;;;;;;5049909;28;20475;-48
2022/12/14 06:01:01;;;;;;;12.20;10.53;;;-2.80;99.90;;;;;;5050638;28;20531;-45
2022/12/14 06:03:27;;;;;;;11.87;10.37;;;-2.70;99.90;;;;;;5050138;28;20448;-47
2022/12/14 06:05:55;;;;;;;12.83;9.13;;;-2.70;99.90;;;;;;5050146;28;20461;-46
2022/12/14 06:08:23;;;;;;;10.70;8.67;;;-2.70;99.90;;;;;;5031108;28;20525;-46
2022/12/14 06:10:50;;;;;;;13.93;10.70;;;-2.80;99.90;;;;;;5043744;28;20473;-45
2022/12/14 06:13:16;;;;;;;11.30;9.30;;;-2.90;99.90;;;;;;5052856;28;20439;-45
2022/12/14 06:15:43;;;;;;;21.37;13.50;;;-3.00;99.90;;;;;;5035397;28;20828;-46
2022/12/14 06:18:10;;;;;;;14.50;10.43;;;-2.80;99.90;;;;;;5033133;28;20481;-47
2022/12/14 06:20:37;;;;;;;8.23;6.80;;;-2.70;99.90;;;;;;5048288;28;21014;-46
2022/12/14 06:23:04;;;;;;;8.63;7.20;;;-2.90;99.90;;;;;;5052939;28;20441;-46
2022/12/14 06:25:32;;;;;;;12.47;7.90;;;-3.20;99.90;;;;;;5054352;28;20467;-46
2022/12/14 06:27:59;;;;;;;11.30;7.37;;;-3.20;99.90;;;;;;5054273;28;20437;-46
2022/12/14 06:30:26;;;;;;;13.27;9.93;;;-3.00;99.90;;;;;;5054205;28;20448;-45
2022/12/14 06:32:52;;;;;;;7.10;5.97;;;-2.90;99.90;;;;;;5053559;28;20443;-43
2022/12/14 06:35:19;;;;;;;7.70;5.57;;;-3.00;99.90;;;;;;5054145;28;20562;-45
2022/12/14 06:37:46;;;;;;;7.30;5.43;;;-3.20;99.90;;;;;;5053958;28;20484;-46
2022/12/14 06:40:13;;;;;;;8.80;5.00;;;-3.30;99.90;;;;;;5053940;28;20445;-46
2022/12/14 06:42:41;;;;;;;4.97;4.40;;;-3.20;99.90;;;;;;5053996;28;20452;-47
2022/12/14 06:45:08;;;;;;;5.30;4.23;;;-3.10;99.90;;;;;;5054017;28;20467;-46
2022/12/14 06:47:35;;;;;;;6.37;4.33;;;-3.10;99.90;;;;;;5054126;28;20439;-46
2022/12/14 06:50:02;;;;;;;6.50;4.93;;;-3.20;99.90;;;;;;5053438;28;20463;-45
2022/12/14 06:52:29;;;;;;;14.73;8.83;;;-3.00;99.90;;;;;;5055360;28;20480;-48
2022/12/14 06:54:56;;;;;;;27.40;19.37;;;-2.90;99.90;;;;;;5053980;28;20552;-45
2022/12/14 06:57:23;;;;;;;24.40;16.03;;;-3.40;99.90;;;;;;5054172;28;20476;-44
2022/12/14 06:59:51;;;;;;;14.67;10.53;;;-3.50;99.90;;;;;;5054618;28;20452;-45
2022/12/14 07:02:18;;;;;;;12.53;9.53;;;-3.40;99.90;;;;;;5054264;28;20440;-45
2022/12/14 07:04:44;;;;;;;17.50;11.90;;;-3.20;99.90;;;;;;5054080;28;20468;-45
2022/12/14 07:07:11;;;;;;;14.80;10.20;;;-3.40;99.90;;;;;;5054180;28;20435;-44
2022/12/14 07:09:38;;;;;;;15.40;11.00;;;-3.40;99.90;;;;;;5053887;28;20525;-48
2022/12/14 07:12:06;;;;;;;10.23;7.57;;;-3.30;99.90;;;;;;5053429;28;20526;-45
2022/12/14 07:14:33;;;;;;;8.27;7.43;;;-3.30;99.90;;;;;;5053294;28;20465;-45
2022/12/14 07:17:01;;;;;;;8.10;6.37;;;-3.30;99.90;;;;;;5053422;28;20914;-46
2022/12/14 07:19:28;;;;;;;5.37;4.87;;;-3.20;99.90;;;;;;5053528;28;20940;-45
2022/12/14 07:21:55;;;;;;;6.37;5.00;;;-3.40;99.90;;;;;;5052720;28;21007;-47
2022/12/14 07:24:21;;;;;;;5.60;3.70;;;-3.30;99.90;;;;;;5052633;28;20452;-45
2022/12/14 07:26:48;;;;;;;13.40;9.13;;;-3.20;99.90;;;;;;5053126;28;20538;-46
2022/12/14 07:29:16;;;;;;;9.13;7.07;;;-3.20;99.90;;;;;;5053473;28;20468;-47
2022/12/14 07:31:42;;;;;;;11.40;7.00;;;-3.30;99.90;;;;;;5053324;28;20487;-47
2022/12/14 07:34:13;;;;;;;7.57;6.50;;;-3.60;99.90;;;;;;5052783;28;20444;-48
2022/12/14 07:36:39;;;;;;;7.73;6.03;;;-3.60;99.90;;;;;;5053042;28;20539;-49
2022/12/14 07:39:07;;;;;;;6.37;4.90;;;-3.40;99.90;;;;;;5053120;28;20805;-47
2022/12/14 07:41:34;;;;;;;7.50;6.07;;;-3.30;99.90;;;;;;5053136;28;20439;-48
2022/12/14 07:44:01;;;;;;;5.20;4.40;;;-3.40;99.90;;;;;;5052855;28;20442;-47
2022/12/14 07:46:30;;;;;;;5.47;3.50;;;-3.60;99.90;;;;;;5052909;28;20471;-47
2022/12/14 07:48:59;;;;;;;3.83;3.53;;;-3.40;99.90;;;;;;5052716;28;20528;-47
2022/12/14 07:51:29;;;;;;;7.80;5.60;;;-3.30;99.90;;;;;;5052991;28;20457;-47
2022/12/14 07:53:57;;;;;;;10.70;8.20;;;-3.40;99.90;;;;;;5052784;28;20606;-47
2022/12/14 07:56:25;;;;;;;14.10;11.97;;;-3.70;99.90;;;;;;5052802;28;20471;-47
2022/12/14 07:58:53;;;;;;;10.63;6.53;;;-3.60;99.90;;;;;;5052754;28;20621;-47
2022/12/14 08:01:22;;;;;;;11.05;6.10;;;-3.70;99.90;;;;;;5052603;28;20532;-47
2022/12/14 08:03:50;;;;;;;11.60;6.97;;;-3.50;99.90;;;;;;5052043;28;20675;-46
2022/12/14 08:06:19;;;;;;;15.27;6.30;;;-3.30;99.90;;;;;;5052546;28;20550;-49
2022/12/14 08:08:47;;;;;;;7.70;6.90;;;-3.30;99.90;;;;;;5052392;28;20527;-48
2022/12/14 08:11:15;;;;;;;18.27;9.67;;;-3.20;99.90;;;;;;5052701;28;20885;-47
2022/12/14 08:13:42;;;;;;;12.17;10.17;;;-3.10;99.90;;;;;;5052259;28;20528;-49
2022/12/14 08:16:12;;;;;;;19.30;14.43;;;-3.10;99.90;;;;;;5052135;28;20467;-48
2022/12/14 08:18:39;;;;;;;15.63;13.33;;;-3.20;99.90;;;;;;5052327;28;20567;-47
2022/12/14 08:21:08;;;;;;;14.83;12.03;;;-3.70;99.90;;;;;;5051976;28;20532;-49
2022/12/14 08:23:35;;;;;;;16.27;14.07;;;-3.60;99.90;;;;;;5051784;28;20532;-48
2022/12/14 08:26:05;;;;;;;14.40;10.63;;;-3.40;99.90;;;;;;5051997;28;20551;-46
2022/12/14 08:28:34;;;;;;;17.15;12.15;;;-3.30;99.90;;;;;;5052140;28;20435;-48
2022/12/14 08:31:06;;;;;;;13.93;10.50;;;-3.40;99.90;;;;;;5052030;28;20202;-47
2022/12/14 08:33:33;;;;;;;9.47;7.50;;;-3.30;99.90;;;;;;5050908;28;20529;-47
2022/12/14 08:36:05;;;;;;;11.37;8.27;;;-3.20;99.90;;;;;;5053458;28;20471;-48
2022/12/14 08:38:32;;;;;;;8.77;7.87;;;-3.00;99.90;;;;;;5052382;28;20476;-48
2022/12/14 08:41:03;;;;;;;12.30;11.20;;;-3.00;99.90;;;;;;5052171;28;20540;-47
2022/12/14 08:43:30;;;;;;;12.57;11.17;;;-3.00;99.90;;;;;;5051909;28;20447;-47
2022/12/14 08:45:57;;;;;;;10.63;9.63;;;-3.20;99.90;;;;;;5051760;28;20967;-47
2022/12/14 08:48:24;;;;;;;12.10;9.80;;;-3.20;99.90;;;;;;5051815;28;20469;-48
2022/12/14 08:50:51;;;;;;;12.67;7.60;;;-3.00;99.90;;;;;;5051525;28;20490;-48
2022/12/14 08:53:18;;;;;;;7.90;6.50;;;-2.80;99.90;;;;;;5051384;28;20443;-47
2022/12/14 08:55:45;;;;;;;13.17;11.80;;;-2.80;99.90;;;;;;5051540;28;20495;-47
2022/12/14 08:58:13;;;;;;;23.23;18.87;;;-2.90;99.90;;;;;;5051567;28;20482;-48
2022/12/14 09:00:40;;;;;;;25.00;16.73;;;-3.10;99.90;;;;;;5051565;28;20471;-48
2022/12/14 09:03:07;;;;;;;16.13;13.90;;;-2.90;99.90;;;;;;5050947;28;20559;-48
2022/12/14 09:05:35;;;;;;;13.03;11.67;;;-2.70;99.90;;;;;;5049753;28;20468;-48
2022/12/14 09:08:02;;;;;;;19.47;14.70;;;-2.70;99.90;;;;;;5050161;28;20442;-48
2022/12/14 09:10:28;;;;;;;11.77;10.50;;;-2.70;99.90;;;;;;5050071;28;20552;-47
2022/12/14 09:12:55;;;;;;;10.27;8.13;;;-2.90;99.90;;;;;;5049853;28;20445;-52
2022/12/14 09:15:23;;;;;;;12.00;8.70;;;-2.80;99.90;;;;;;5049792;28;20542;-49
2022/12/14 09:17:50;;;;;;;8.37;7.47;;;-2.60;99.90;;;;;;5049733;28;20479;-48
2022/12/14 09:20:17;;;;;;;8.13;7.30;;;-2.50;99.90;;;;;;5051034;28;20441;-47
2022/12/14 09:22:44;;;;;;;8.37;6.40;;;-2.40;99.90;;;;;;5051221;28;20459;-48
2022/12/14 09:25:12;;;;;;;11.00;9.80;;;-2.60;99.90;;;;;;5051160;28;20462;-47
2022/12/14 09:27:38;;;;;;;13.80;10.60;;;-2.60;99.90;;;;;;5051777;28;20437;-49
2022/12/14 09:30:06;;;;;;;19.10;14.33;;;-2.50;99.90;;;;;;5051245;28;20941;-47
2022/12/14 09:32:34;;;;;;;14.57;11.33;;;-2.40;99.90;;;;;;5051218;28;20525;-48
2022/12/14 09:35:01;;;;;;;12.77;9.03;;;-2.80;99.90;;;;;;5050994;28;20511;-47
2022/12/14 09:37:28;;;;;;;10.13;7.07;;;-2.90;99.90;;;;;;5051178;28;20531;-47
2022/12/14 09:39:54;;;;;;;6.37;5.77;;;-2.70;99.90;;;;;;5051300;28;20449;-48
2022/12/14 09:42:42;;;;;;;12.77;8.80;;;-2.40;99.90;;;;;;5051275;28;20441;-50
2022/12/14 09:45:17;;;;;;;13.53;10.60;;;-2.30;99.90;;;;;;5054148;28;20583;-50
2022/12/14 09:47:54;;;;;;;17.70;13.00;;;-2.30;99.90;;;;;;5055279;28;20440;-47
2022/12/14 09:50:22;;;;;;;11.70;10.57;;;-2.30;99.90;;;;;;5055521;28;20510;-47
2022/12/14 09:52:51;;;;;;;13.47;10.13;;;-2.30;99.90;;;;;;5055150;28;20471;-47
2022/12/14 09:55:22;;;;;;;9.33;8.40;;;-2.30;99.90;;;;;;5054842;28;20883;-48
2022/12/14 09:57:54;;;;;;;9.50;8.60;;;-2.20;99.90;;;;;;5055269;28;20477;-47
2022/12/14 10:00:21;;;;;;;10.50;9.43;;;-2.30;99.90;;;;;;5055089;28;20973;-47
2022/12/14 10:03:05;;;;;;;12.73;7.80;;;-2.40;99.90;;;;;;5055101;28;20456;-47
2022/12/14 10:06:02;;;;;;;10.37;7.60;;;-2.30;99.90;;;;;;5054846;28;20903;-47
2022/12/14 10:08:34;;;;;;;11.40;7.90;;;-2.30;99.90;;;;;;5054921;28;20748;-47
2022/12/14 10:11:07;;;;;;;11.83;9.23;;;-2.20;99.90;;;;;;5054829;28;20456;-48
2022/12/14 10:13:46;;;;;;;15.30;11.50;;;-2.00;99.90;;;;;;5054420;28;20451;-47
2022/12/14 10:16:22;;;;;;;13.57;12.17;;;-2.10;99.90;;;;;;5054491;28;20492;-47
2022/12/14 10:19:07;;;;;;;12.83;9.73;;;-2.10;99.90;;;;;;5054606;28;20562;-47
2022/12/14 10:21:42;;;;;;;11.50;7.13;;;-2.00;99.90;;;;;;5054649;28;20438;-49
2022/12/14 10:24:17;;;;;;;7.27;6.53;;;-1.80;99.90;;;;;;5053813;28;20451;-47
2022/12/14 10:26:48;;;;;;;9.63;5.70;;;-1.70;99.90;;;;;;5054299;28;20563;-50
2022/12/14 10:29:21;;;;;;;6.37;5.77;;;-1.60;99.90;;;;;;5054827;28;20528;-47
2022/12/14 10:31:52;;;;;;;9.50;8.30;;;-1.70;99.90;;;;;;5054472;28;20481;-50
2022/12/14 10:34:24;;;;;;;11.37;10.20;;;-1.60;99.90;;;;;;5053650;28;20473;-48
2022/12/14 10:36:54;;;;;;;17.93;12.40;;;-1.60;99.90;;;;;;5054480;28;20879;-49
2022/12/14 10:39:34;;;;;;;22.23;14.47;;;-1.60;99.90;;;;;;5054174;28;20854;-50
2022/12/14 10:42:10;;;;;;;15.70;10.50;;;-1.60;99.90;;;;;;5053810;28;20531;-47
2022/12/14 10:44:43;;;;;;;11.87;9.23;;;-1.60;99.90;;;;;;5053671;28;20576;-48
2022/12/14 10:47:15;;;;;;;10.00;8.83;;;-1.50;99.90;;;;;;5053537;28;20440;-49
2022/12/14 10:49:51;;;;;;;9.83;8.07;;;-1.50;99.90;;;;;;5054262;28;20433;-48
2022/12/14 10:52:22;;;;;;;10.27;9.20;;;-1.50;99.90;;;;;;5053893;28;20445;-47
2022/12/14 10:54:52;;;;;;;10.13;9.03;;;-1.50;99.90;;;;;;5053370;28;20543;-49
2022/12/14 10:57:21;;;;;;;10.40;9.13;;;-1.30;99.90;;;;;;5053038;28;20536;-48
2022/12/14 10:59:48;;;;;;;12.30;11.10;;;-1.10;99.90;;;;;;5054109;28;20484;-52
2022/12/14 11:02:18;;;;;;;11.80;9.67;;;-1.00;99.90;;;;;;5053761;28;20446;-48
2022/12/14 11:04:50;;;;;;;6.93;6.10;;;-0.20;99.90;;;;;;5053362;28;20544;-48
2022/12/14 11:07:18;;;;;;;7.03;5.37;;;0.80;99.90;;;;;;5053849;28;20528;-49
2022/12/14 11:09:46;;;;;;;12.00;8.83;;;0.50;99.90;;;;;;5053982;28;20438;-48
2022/12/14 11:12:19;;;;;;;13.33;11.93;;;0.30;99.90;;;;;;5053800;28;20442;-49
2022/12/14 11:14:54;;;;;;;9.23;8.37;;;-0.10;99.90;;;;;;5053148;28;21039;-46
2022/12/14 11:17:33;;;;;;;15.23;8.63;;;-0.30;99.90;;;;;;5053343;28;20926;-48
2022/12/14 11:20:17;;;;;;;10.10;8.97;;;-0.40;99.90;;;;;;5053327;28;20971;-47
2022/12/14 11:22:45;;;;;;;9.60;8.07;;;-0.40;99.90;;;;;;5053364;28;20537;-47
2022/12/14 11:25:31;;;;;;;9.63;7.00;;;-0.30;99.90;;;;;;5052865;28;20533;-48
2022/12/14 11:27:59;;;;;;;11.20;8.50;;;-0.10;99.90;;;;;;5053607;28;20445;-49
2022/12/14 11:30:27;;;;;;;8.57;7.67;;;0.00;99.90;;;;;;5053048;28;20556;-52
2022/12/14 11:32:54;;;;;;;10.80;8.63;;;-0.10;99.90;;;;;;5052789;28;20528;-49
2022/12/14 11:35:23;;;;;;;10.30;9.30;;;-0.10;99.90;;;;;;5053115;28;20473;-48
2022/12/14 11:37:50;;;;;;;13.47;9.33;;;-0.10;99.90;;;;;;5053048;28;20955;-48
2022/12/14 11:40:24;;;;;;;8.93;8.00;;;-0.10;99.90;;;;;;5053309;28;20525;-48
2022/12/14 11:43:00;;;;;;;7.97;6.90;;;-0.10;99.90;;;;;;5052814;28;20446;-52
2022/12/14 11:45:32;;;;;;;7.17;6.47;;;0.00;99.90;;;;;;5052937;28;20552;-48
2022/12/14 11:48:20;;;;;;;8.03;6.90;;;0.00;99.90;;;;;;5052712;28;20446;-50
2022/12/14 11:50:49;;;;;;;7.53;6.83;;;0.00;99.90;;;;;;5052892;28;20444;-51
2022/12/14 11:53:18;;;;;;;7.57;6.75;;;0.00;99.90;;;;;;5052392;28;20341;-49
2022/12/14 11:55:49;;;;;;;9.03;8.20;;;0.00;99.90;;;;;;5052887;28;20306;-48
2022/12/14 11:58:19;;;;;;;8.43;7.30;;;0.20;99.90;;;;;;5052863;28;20499;-49
2022/12/14 12:00:49;;;;;;;6.50;5.93;;;0.10;99.90;;;;;;5052860;28;20442;-48
2022/12/14 12:03:23;;;;;;;6.67;6.07;;;0.20;99.90;;;;;;5052458;28;20538;-50
2022/12/14 12:05:52;;;;;;;8.50;6.10;;;0.20;99.90;;;;;;5052975;28;20466;-48
2022/12/14 12:08:23;;;;;;;7.33;6.63;;;0.30;99.90;;;;;;5052640;28;20438;-48
2022/12/14 12:10:52;;;;;;;10.47;8.60;;;0.20;99.90;;;;;;5052445;28;20445;-48
2022/12/14 12:13:26;;;;;;;8.83;7.40;;;0.20;99.90;;;;;;5052295;28;20528;-47
2022/12/14 12:15:55;;;;;;;9.70;8.70;;;0.20;99.90;;;;;;5052219;28;21045;-47
2022/12/14 12:18:28;;;;;;;10.70;7.83;;;0.20;99.90;;;;;;5052291;28;20445;-47
2022/12/14 12:21:00;;;;;;;9.33;8.13;;;0.30;99.90;;;;;;5052390;28;20438;-47
2022/12/14 12:23:33;;;;;;;8.80;7.83;;;0.30;99.90;;;;;;5051941;28;20445;-50
2022/12/14 12:26:05;;;;;;;8.53;7.83;;;0.40;99.90;;;;;;5052487;28;20572;-48
2022/12/14 12:28:35;;;;;;;12.20;9.83;;;0.30;99.90;;;;;;5052179;28;20529;-50
2022/12/14 12:31:11;;;;;;;9.97;8.93;;;0.30;99.90;;;;;;5052174;28;20533;-48
2022/12/14 12:33:44;;;;;;;9.13;8.10;;;0.30;99.90;;;;;;5051720;28;20541;-49
2022/12/14 12:36:17;;;;;;;7.90;7.10;;;0.30;99.90;;;;;;5051834;28;20476;-47
2022/12/14 12:38:56;;;;;;;7.33;6.10;;;0.40;99.90;;;;;;5051927;28;20477;-48
2022/12/14 12:41:39;;;;;;;5.10;4.60;;;0.40;99.90;;;;;;5052059;28;20445;-48
2022/12/14 12:44:19;;;;;;;7.17;6.27;;;0.60;99.90;;;;;;5051732;28;20441;-48
2022/12/14 12:46:59;;;;;;;7.13;6.43;;;0.60;99.90;;;;;;5051724;28;20529;-47
2022/12/14 12:49:26;;;;;;;5.97;5.47;;;0.50;99.90;;;;;;5051882;28;20887;-47
2022/12/14 12:51:59;;;;;;;6.97;6.27;;;0.40;99.90;;;;;;5051757;28;20444;-49
2022/12/14 12:54:31;;;;;;;10.07;7.40;;;0.40;99.90;;;;;;5051400;28;20532;-47
2022/12/14 12:57:00;;;;;;;8.27;6.30;;;0.60;99.90;;;;;;5051596;28;20957;-47
2022/12/14 12:59:36;;;;;;;7.87;6.40;;;0.50;99.90;;;;;;5051179;28;21018;-47
2022/12/14 13:02:15;;;;;;;7.73;7.03;;;0.40;99.90;;;;;;5051991;28;20530;-47
2022/12/14 13:04:44;;;;;;;6.10;5.50;;;0.40;99.90;;;;;;5051602;28;20497;-48
2022/12/14 13:07:22;;;;;;;7.97;6.97;;;0.30;99.90;;;;;;5051632;28;20512;-47
2022/12/14 13:09:53;;;;;;;10.30;7.87;;;0.30;99.90;;;;;;5051197;28;20525;-47
2022/12/14 13:12:25;;;;;;;8.37;6.73;;;0.20;99.90;;;;;;5051541;28;20441;-47